createdAt,value
2023-01-08T00:01:46.634Z,88.69
2023-01-08T00:04:18.394Z,89.18
2023-01-08T00:06:48.571Z,89.52
2023-01-08T00:09:17.416Z,88.76
2023-01-08T00:11:46.150Z,89.42
2023-01-08T00:14:14.883Z,88.63
2023-01-08T00:16:43.571Z,88.09
2023-01-08T00:19:13.309Z,87.96
2023-01-08T00:21:42.064Z,88.30
2023-01-08T00:24:12.229Z,88.05
2023-01-08T00:26:41.246Z,88.49
2023-01-08T00:29:10.155Z,87.98
2023-01-08T00:31:39.031Z,88.34
2023-01-08T00:34:07.733Z,87.56
2023-01-08T00:36:36.521Z,87.78
2023-01-08T00:39:05.439Z,87.88
2023-01-08T00:41:35.563Z,88.28
2023-01-08T00:44:04.392Z,88.01
2023-01-08T00:46:33.264Z,88.91
2023-01-08T00:49:02.532Z,88.54
2023-01-08T00:51:31.295Z,88.06
2023-01-08T00:54:00.076Z,88.08
2023-01-08T00:56:28.846Z,88.49
2023-01-08T00:58:59.053Z,89.22
2023-01-08T01:01:27.947Z,88.79
2023-01-08T01:03:56.974Z,88.56
2023-01-08T01:06:25.780Z,88.80
2023-01-08T01:08:54.522Z,88.96
2023-01-08T01:11:26.730Z,88.76
2023-01-08T01:13:57.033Z,88.58
2023-01-08T01:16:27.417Z,88.97
2023-01-08T01:18:57.800Z,88.21
2023-01-08T01:21:28.436Z,88.65
2023-01-08T01:23:59.069Z,87.76
2023-01-08T01:26:29.058Z,87.98
2023-01-08T01:28:59.429Z,87.63
2023-01-08T01:31:32.155Z,87.90
2023-01-08T01:34:01.132Z,88.00
2023-01-08T01:36:29.843Z,87.93
2023-01-08T01:38:59.784Z,87.99
2023-01-08T01:41:31.441Z,87.72
2023-01-08T01:44:01.922Z,87.91
2023-01-08T01:46:39.356Z,87.81
2023-01-08T01:49:13.502Z,87.75
2023-01-08T01:51:49.043Z,87.91
2023-01-08T01:54:19.810Z,88.22
2023-01-08T01:56:48.935Z,87.76
2023-01-08T01:59:17.981Z,87.72
2023-01-08T02:01:49.825Z,87.68
2023-01-08T02:04:18.922Z,87.85
2023-01-08T02:06:56.794Z,87.85
2023-01-08T02:09:37.645Z,87.92
2023-01-08T02:12:18.193Z,88.25
2023-01-08T02:15:01.258Z,88.33
2023-01-08T02:17:37.890Z,88.74
2023-01-08T02:20:13.199Z,88.67
2023-01-08T02:22:54.226Z,89.06
2023-01-08T02:25:38.721Z,88.36
2023-01-08T02:28:13.024Z,88.56
2023-01-08T02:30:42.847Z,88.83
2023-01-08T02:33:11.221Z,89.10
2023-01-08T02:35:43.800Z,89.51
2023-01-08T02:38:16.452Z,89.10
2023-01-08T02:40:55.857Z,88.30
2023-01-08T02:43:31.319Z,88.38
2023-01-08T02:46:03.125Z,88.50
2023-01-08T02:48:41.500Z,88.54
2023-01-08T02:51:15.303Z,88.43
2023-01-08T02:53:47.103Z,88.35
2023-01-08T02:56:21.621Z,87.43
2023-01-08T02:58:54.379Z,87.74
2023-01-08T03:01:25.696Z,88.21
2023-01-08T03:03:57.509Z,87.77
2023-01-08T03:06:29.206Z,87.93
2023-01-08T03:08:59.713Z,87.44
2023-01-08T03:11:34.411Z,87.67
2023-01-08T03:14:10.684Z,88.71
2023-01-08T03:16:48.528Z,88.26
2023-01-08T03:19:21.471Z,88.24
2023-01-08T03:21:52.064Z,88.26
2023-01-08T03:24:24.224Z,88.38
2023-01-08T03:26:58.374Z,88.01
2023-01-08T03:29:29.571Z,89.00
2023-01-08T03:32:02.922Z,88.82
2023-01-08T03:34:37.284Z,88.63
2023-01-08T03:37:09.888Z,89.47
2023-01-08T03:39:43.913Z,88.50
2023-01-08T03:42:16.622Z,89.23
2023-01-08T03:44:46.922Z,89.59
2023-01-08T03:47:17.342Z,89.06
2023-01-08T03:49:47.526Z,88.98
2023-01-08T03:52:23.953Z,88.96
2023-01-08T03:54:53.915Z,89.24
2023-01-08T03:57:22.606Z,89.73
2023-01-08T03:59:53.601Z,89.98
2023-01-08T04:02:22.588Z,89.38
2023-01-08T04:04:51.462Z,89.54
2023-01-08T04:07:20.223Z,89.68
2023-01-08T04:09:49.001Z,89.81
2023-01-08T04:12:17.765Z,89.16
2023-01-08T04:14:46.518Z,89.13
2023-01-08T04:17:16.761Z,89.36
2023-01-08T04:19:46.254Z,89.98
2023-01-08T04:22:14.986Z,89.31
2023-01-08T04:24:44.455Z,89.84
2023-01-08T04:27:13.194Z,89.65
2023-01-08T04:29:41.973Z,90.19
2023-01-08T04:32:10.797Z,89.71
2023-01-08T04:34:41.015Z,89.76
2023-01-08T04:37:09.847Z,89.72
2023-01-08T04:39:38.564Z,89.75
2023-01-08T04:42:07.771Z,89.56
2023-01-08T04:44:36.493Z,90.27
2023-01-08T04:47:05.218Z,89.32
2023-01-08T04:49:33.914Z,89.84
2023-01-08T04:52:04.022Z,90.13
2023-01-08T04:54:33.387Z,89.08
2023-01-08T04:57:02.101Z,89.34
2023-01-08T04:59:30.865Z,89.87
2023-01-08T05:01:59.700Z,89.28
2023-01-08T05:04:28.543Z,89.67
2023-01-08T05:06:57.272Z,89.96
2023-01-08T05:09:27.460Z,89.58
2023-01-08T05:11:56.215Z,90.00
2023-01-08T05:14:25.051Z,89.26
2023-01-08T05:16:53.761Z,90.15
2023-01-08T05:19:22.462Z,89.82
2023-01-08T05:21:51.194Z,89.92
2023-01-08T05:24:20.086Z,90.01
2023-01-08T05:26:50.213Z,89.88
2023-01-08T05:29:19.019Z,90.13
2023-01-08T05:31:47.985Z,89.94
2023-01-08T05:34:16.829Z,90.39
2023-01-08T05:36:45.608Z,90.15
2023-01-08T05:39:14.510Z,90.60
2023-01-08T05:41:43.231Z,90.05
2023-01-08T05:44:13.725Z,90.44
2023-01-08T05:46:42.568Z,90.47
2023-01-08T05:49:11.481Z,90.85
2023-01-08T05:51:40.233Z,90.73
2023-01-08T05:54:09.049Z,90.79
2023-01-08T05:56:37.863Z,90.69
2023-01-08T05:59:06.673Z,90.68
2023-01-08T06:01:36.985Z,90.25
2023-01-08T06:04:06.033Z,90.97
2023-01-08T06:06:34.754Z,90.85
2023-01-08T06:09:03.506Z,90.64
2023-01-08T06:11:32.170Z,90.60
2023-01-08T06:14:00.954Z,90.76
2023-01-08T06:16:29.605Z,90.60
2023-01-08T06:18:59.805Z,90.67
2023-01-08T06:21:28.907Z,90.91
2023-01-08T06:23:57.612Z,90.98
2023-01-08T06:26:26.447Z,90.79
2023-01-08T06:28:55.180Z,90.82
2023-01-08T06:31:24.014Z,90.80
2023-01-08T06:33:52.746Z,91.41
2023-01-08T06:36:23.066Z,91.17
2023-01-08T06:38:51.754Z,91.51
2023-01-08T06:41:20.569Z,90.91
2023-01-08T06:43:49.279Z,91.19
2023-01-08T06:46:17.976Z,91.56
2023-01-08T06:48:47.055Z,91.23
2023-01-08T06:51:15.810Z,91.70
2023-01-08T06:53:45.949Z,91.43
2023-01-08T06:56:14.709Z,91.61
2023-01-08T06:58:43.645Z,91.45
2023-01-08T07:01:16.559Z,91.48
2023-01-08T07:03:45.946Z,92.00
2023-01-08T07:06:17.102Z,91.22
2023-01-08T07:08:47.974Z,91.60
2023-01-08T07:11:18.617Z,91.47
2023-01-08T07:13:47.386Z,91.89
2023-01-08T07:16:16.949Z,91.71
2023-01-08T07:18:45.438Z,91.73
2023-01-08T07:21:14.103Z,91.69
2023-01-08T07:23:43.348Z,91.84
2023-01-08T07:26:13.473Z,92.22
2023-01-08T07:28:43.926Z,91.75
2023-01-08T07:31:12.814Z,92.26
2023-01-08T07:33:41.557Z,91.82
2023-01-08T07:36:11.088Z,92.50
2023-01-08T07:38:39.833Z,91.58
2023-01-08T07:41:14.336Z,92.19
2023-01-08T07:43:43.187Z,92.05
2023-01-08T07:46:11.940Z,92.08
2023-01-08T07:48:40.967Z,92.36
2023-01-08T07:51:10.893Z,92.46
2023-01-08T07:53:39.845Z,92.03
2023-01-08T07:56:11.425Z,91.83
2023-01-08T07:58:41.607Z,92.02
2023-01-08T08:01:12.877Z,91.17
2023-01-08T08:03:42.181Z,91.04
2023-01-08T08:06:11.278Z,90.71
2023-01-08T08:08:42.095Z,90.32
2023-01-08T08:11:11.549Z,90.03
2023-01-08T08:13:45.088Z,89.53
2023-01-08T08:16:14.260Z,89.45
2023-01-08T08:18:43.009Z,89.44
2023-01-08T08:21:12.073Z,88.27
2023-01-08T08:23:40.640Z,87.99
2023-01-08T08:26:09.374Z,87.66
2023-01-08T08:28:38.100Z,86.66
2023-01-08T08:31:08.470Z,86.21
2023-01-08T08:33:37.362Z,85.70
2023-01-08T08:36:06.528Z,85.33
2023-01-08T08:38:35.686Z,84.87
2023-01-08T08:41:04.373Z,85.37
2023-01-08T08:43:33.422Z,84.27
2023-01-08T08:46:02.087Z,83.43
2023-01-08T08:48:32.245Z,83.68
2023-01-08T08:51:01.029Z,82.78
2023-01-08T08:53:29.835Z,82.52
2023-01-08T08:55:59.917Z,82.77
2023-01-08T08:58:28.688Z,81.32
2023-01-08T09:01:02.564Z,82.17
2023-01-08T09:03:32.929Z,80.78
2023-01-08T09:06:01.912Z,81.37
2023-01-08T09:08:30.725Z,81.41
2023-01-08T09:10:59.493Z,80.56
2023-01-08T09:13:28.235Z,81.16
2023-01-08T09:16:00.135Z,80.64
2023-01-08T09:18:28.934Z,80.04
2023-01-08T09:20:59.014Z,79.53
2023-01-08T09:23:28.056Z,79.86
2023-01-08T09:26:01.137Z,79.41
2023-01-08T09:28:29.875Z,79.89
2023-01-08T09:31:02.180Z,79.71
2023-01-08T09:33:31.555Z,79.64
2023-01-08T09:36:01.679Z,79.01
2023-01-08T09:38:30.394Z,78.86
2023-01-08T09:41:03.859Z,79.26
2023-01-08T09:43:36.779Z,78.30
2023-01-08T09:46:08.439Z,78.94
2023-01-08T09:48:39.489Z,78.84
2023-01-08T09:51:13.000Z,77.78
2023-01-08T09:53:42.838Z,78.20
2023-01-08T09:56:16.340Z,78.43
2023-01-08T09:58:49.246Z,78.63
2023-01-08T10:01:21.892Z,77.54
2023-01-08T10:03:55.263Z,78.01
2023-01-08T10:06:25.999Z,77.92
2023-01-08T10:08:54.876Z,78.10
2023-01-08T10:11:25.577Z,77.97
2023-01-08T10:13:56.733Z,78.04
2023-01-08T10:16:31.915Z,77.79
2023-01-08T10:19:01.986Z,77.22
2023-01-08T10:21:33.824Z,76.98
2023-01-08T10:24:02.730Z,77.75
2023-01-08T10:26:33.208Z,77.15
2023-01-08T10:29:10.518Z,77.42
2023-01-08T10:31:48.765Z,78.06
2023-01-08T10:34:29.410Z,77.39
2023-01-08T10:36:59.888Z,77.32
2023-01-08T10:39:31.257Z,77.56
2023-01-08T10:42:06.865Z,78.18
2023-01-08T10:44:36.076Z,77.38
2023-01-08T10:47:07.049Z,78.18
2023-01-08T10:49:42.212Z,78.08
2023-01-08T10:52:26.906Z,77.72
2023-01-08T10:54:56.195Z,77.87
2023-01-08T10:57:28.054Z,77.38
2023-01-08T10:59:57.916Z,78.30
2023-01-08T11:02:36.507Z,77.85
2023-01-08T11:05:11.643Z,78.28
2023-01-08T11:07:42.306Z,78.56
2023-01-08T11:10:24.430Z,78.29
2023-01-08T11:12:57.797Z,77.36
2023-01-08T11:15:33.581Z,78.20
2023-01-08T11:18:21.980Z,78.00
2023-01-08T11:20:52.124Z,77.88
2023-01-08T11:23:25.796Z,77.83
2023-01-08T11:26:03.151Z,78.16
2023-01-08T11:28:43.384Z,78.00
2023-01-08T11:31:18.222Z,77.52
2023-01-08T11:33:51.587Z,77.43
2023-01-08T11:36:27.831Z,78.21
2023-01-08T11:38:58.129Z,77.50
2023-01-08T11:41:40.912Z,77.61
2023-01-08T11:44:26.797Z,77.77
2023-01-08T11:47:08.937Z,77.92
2023-01-08T11:49:59.678Z,77.96
2023-01-08T11:52:44.672Z,78.80
2023-01-08T11:55:25.953Z,78.35
2023-01-08T11:58:08.150Z,78.39
2023-01-08T12:00:51.742Z,78.59
2023-01-08T12:03:32.989Z,78.00
2023-01-08T12:06:24.253Z,78.84
2023-01-08T12:09:05.806Z,78.70
2023-01-08T12:11:43.432Z,78.15
2023-01-08T12:14:30.495Z,78.38
2023-01-08T12:17:14.072Z,78.79
2023-01-08T12:19:59.966Z,77.99
2023-01-08T12:22:40.624Z,78.48
2023-01-08T12:25:27.106Z,78.55
2023-01-08T12:28:11.340Z,79.11
2023-01-08T12:30:56.938Z,78.95
2023-01-08T12:33:36.603Z,78.77
2023-01-08T12:36:10.881Z,78.81
2023-01-08T12:38:44.872Z,78.82
2023-01-08T12:41:15.873Z,78.82
2023-01-08T12:43:55.454Z,78.94
2023-01-08T12:46:26.133Z,78.75
2023-01-08T12:48:57.813Z,78.13
2023-01-08T12:51:34.660Z,79.03
2023-01-08T12:54:18.160Z,79.18
2023-01-08T12:56:56.969Z,79.64
2023-01-08T12:59:38.630Z,79.12
2023-01-08T13:02:20.509Z,79.43
2023-01-08T13:04:50.041Z,79.93
2023-01-08T13:07:24.840Z,79.58
2023-01-08T13:09:57.783Z,79.68
2023-01-08T13:12:35.931Z,79.05
2023-01-08T13:15:08.333Z,80.34
2023-01-08T13:17:39.624Z,80.10
2023-01-08T13:20:10.280Z,79.65
2023-01-08T13:22:39.559Z,79.49
2023-01-08T13:25:23.354Z,79.42
2023-01-08T13:27:52.085Z,79.49
2023-01-08T13:30:38.652Z,80.25
2023-01-08T13:33:28.299Z,80.07
2023-01-08T13:36:07.424Z,79.86
2023-01-08T13:38:36.233Z,79.72
2023-01-08T13:41:05.091Z,80.21
2023-01-08T13:43:40.419Z,80.01
2023-01-08T13:46:17.731Z,80.71
2023-01-08T13:48:52.338Z,80.40
2023-01-08T13:51:48.185Z,80.09
2023-01-08T13:54:26.744Z,79.76
2023-01-08T13:57:04.581Z,78.97
2023-01-08T13:59:40.725Z,79.67
2023-01-08T14:02:27.066Z,79.68
2023-01-08T14:04:56.497Z,79.90
2023-01-08T14:07:25.448Z,79.53
2023-01-08T14:09:54.761Z,79.81
2023-01-08T14:12:25.940Z,79.29
2023-01-08T14:14:59.009Z,79.28
2023-01-08T14:17:32.724Z,79.29
2023-01-08T14:20:01.579Z,79.33
2023-01-08T14:22:35.085Z,79.45
2023-01-08T14:25:06.459Z,79.44
2023-01-08T14:27:36.492Z,80.22
2023-01-08T14:30:18.884Z,79.35
2023-01-08T14:32:49.017Z,79.94
2023-01-08T14:35:20.580Z,79.36
2023-01-08T14:37:49.430Z,79.61
2023-01-08T14:40:29.179Z,79.42
2023-01-08T14:42:59.599Z,79.18
2023-01-08T14:45:31.968Z,79.60
2023-01-08T14:48:12.719Z,79.87
2023-01-08T14:50:44.161Z,80.01
2023-01-08T14:53:24.235Z,79.78
2023-01-08T14:55:54.748Z,80.46
2023-01-08T14:58:26.996Z,80.35
2023-01-08T15:00:58.858Z,80.41
2023-01-08T15:03:35.859Z,79.73
2023-01-08T15:06:05.470Z,79.98
2023-01-08T15:08:37.644Z,79.93
2023-01-08T15:11:11.905Z,80.39
2023-01-08T15:13:40.745Z,80.68
2023-01-08T15:16:12.565Z,79.99
2023-01-08T15:18:48.313Z,80.58
2023-01-08T15:21:21.495Z,80.66
2023-01-08T15:23:54.571Z,80.42
2023-01-08T15:26:24.764Z,80.46
2023-01-08T15:28:56.364Z,79.85
2023-01-08T15:31:30.204Z,79.88
2023-01-08T15:34:01.636Z,79.97
2023-01-08T15:36:30.405Z,80.21
2023-01-08T15:38:59.141Z,79.98
2023-01-08T15:41:45.503Z,79.60
2023-01-08T15:44:14.359Z,80.05
2023-01-08T15:46:43.109Z,79.82
2023-01-08T15:49:13.424Z,79.61
2023-01-08T15:51:47.756Z,79.71
2023-01-08T15:54:17.169Z,79.80
2023-01-08T15:56:46.146Z,79.76
2023-01-08T15:59:14.921Z,79.50
2023-01-08T16:01:43.974Z,80.32
2023-01-08T16:04:14.216Z,79.58
2023-01-08T16:06:43.055Z,79.25
2023-01-08T16:09:11.917Z,80.31
2023-01-08T16:11:40.736Z,80.20
2023-01-08T16:14:09.495Z,80.06
2023-01-08T16:16:38.562Z,80.08
2023-01-08T16:19:07.322Z,79.74
2023-01-08T16:21:37.581Z,79.46
2023-01-08T16:24:07.963Z,80.02
2023-01-08T16:26:36.720Z,80.00
2023-01-08T16:29:05.594Z,79.55
2023-01-08T16:31:35.845Z,79.49
2023-01-08T16:34:06.177Z,79.96
2023-01-08T16:36:36.455Z,79.59
2023-01-08T16:39:05.446Z,79.67
2023-01-08T16:41:34.347Z,79.76
2023-01-08T16:44:03.319Z,80.23
2023-01-08T16:46:32.039Z,80.03
2023-01-08T16:49:01.358Z,80.33
2023-01-08T16:51:30.009Z,80.06
2023-01-08T16:54:00.265Z,80.56
2023-01-08T16:56:29.065Z,80.41
2023-01-08T16:58:57.790Z,80.87
2023-01-08T17:01:27.412Z,80.41
2023-01-08T17:03:57.377Z,80.49
2023-01-08T17:06:27.375Z,80.87
2023-01-08T17:08:56.267Z,80.60
2023-01-08T17:11:26.985Z,80.75
2023-01-08T17:13:55.829Z,80.54
2023-01-08T17:16:24.500Z,80.30
2023-01-08T17:18:53.790Z,80.73
2023-01-08T17:21:22.451Z,80.85
2023-01-08T17:23:51.256Z,80.97
2023-01-08T17:26:19.958Z,80.42
2023-01-08T17:28:50.203Z,81.13
2023-01-08T17:31:20.716Z,80.59
2023-01-08T17:33:51.439Z,80.99
2023-01-08T17:36:22.091Z,81.08
2023-01-08T17:38:51.383Z,81.00
2023-01-08T17:41:30.641Z,81.37
2023-01-08T17:44:01.258Z,81.39
2023-01-08T17:46:30.307Z,80.87
2023-01-08T17:48:59.128Z,81.07
2023-01-08T17:51:27.967Z,80.84
2023-01-08T17:53:58.347Z,80.25
2023-01-08T17:56:27.170Z,79.98
2023-01-08T17:58:55.952Z,80.45
2023-01-08T18:01:26.293Z,80.44
2023-01-08T18:03:55.369Z,80.65
2023-01-08T18:06:24.115Z,80.65
2023-01-08T18:08:52.936Z,80.41
2023-01-08T18:11:21.680Z,81.12
2023-01-08T18:13:50.629Z,81.29
2023-01-08T18:16:19.358Z,81.39
2023-01-08T18:18:49.569Z,80.57
2023-01-08T18:21:18.621Z,80.83
2023-01-08T18:23:48.821Z,81.00
2023-01-08T18:26:20.809Z,81.15
2023-01-08T18:28:50.165Z,81.84
2023-01-08T18:31:18.731Z,81.83
2023-01-08T18:33:51.459Z,82.14
2023-01-08T18:36:21.441Z,82.18
2023-01-08T18:38:50.020Z,81.79
2023-01-08T18:41:35.227Z,81.89
2023-01-08T18:44:06.216Z,81.94
2023-01-08T18:46:35.333Z,82.35
2023-01-08T18:49:06.240Z,82.41
2023-01-08T18:51:35.159Z,83.07
2023-01-08T18:54:04.668Z,82.77
2023-01-08T18:56:36.419Z,82.89
2023-01-08T18:59:07.230Z,82.96
2023-01-08T19:01:37.229Z,83.83
2023-01-08T19:04:07.608Z,83.73
2023-01-08T19:06:36.703Z,83.49
2023-01-08T19:09:05.556Z,83.47
2023-01-08T19:11:34.388Z,83.42
2023-01-08T19:14:03.240Z,83.82
2023-01-08T19:16:31.994Z,84.12
2023-01-08T19:19:00.939Z,84.10
2023-01-08T19:21:31.342Z,83.79
2023-01-08T19:24:00.294Z,84.21
2023-01-08T19:26:29.108Z,83.73
2023-01-08T19:28:57.756Z,84.20
2023-01-08T19:31:26.559Z,84.41
2023-01-08T19:33:55.431Z,84.67
2023-01-08T19:36:26.079Z,84.25
2023-01-08T19:38:56.309Z,84.28
2023-01-08T19:41:34.875Z,84.08
2023-01-08T19:44:03.618Z,84.63
2023-01-08T19:46:32.937Z,85.50
2023-01-08T19:49:03.138Z,84.72
2023-01-08T19:51:33.823Z,84.55
2023-01-08T19:54:04.022Z,84.74
2023-01-08T19:56:32.869Z,84.74
2023-01-08T19:59:01.653Z,84.93
2023-01-08T20:01:30.459Z,85.16
2023-01-08T20:03:59.287Z,84.48
2023-01-08T20:06:29.688Z,84.69
2023-01-08T20:09:00.976Z,85.25
2023-01-08T20:11:31.680Z,84.96
2023-01-08T20:14:03.058Z,84.70
2023-01-08T20:16:32.312Z,85.47
2023-01-08T20:19:04.558Z,85.45
2023-01-08T20:21:34.998Z,85.39
2023-01-08T20:24:09.937Z,86.01
2023-01-08T20:26:40.560Z,85.55
2023-01-08T20:29:10.364Z,85.94
2023-01-08T20:31:40.273Z,86.22
2023-01-08T20:34:12.317Z,86.33
2023-01-08T20:36:41.281Z,86.13
2023-01-08T20:39:13.179Z,85.91
2023-01-08T20:41:50.076Z,86.63
2023-01-08T20:44:30.159Z,86.83
2023-01-08T20:46:58.851Z,86.96
2023-01-08T20:49:27.876Z,87.57
2023-01-08T20:51:59.481Z,87.64
2023-01-08T20:54:30.249Z,87.98
2023-01-08T20:57:01.909Z,87.92
2023-01-08T20:59:31.103Z,88.54
2023-01-08T21:01:59.958Z,88.47
2023-01-08T21:04:29.128Z,88.70
2023-01-08T21:06:57.929Z,89.09
2023-01-08T21:09:27.136Z,89.43
2023-01-08T21:11:55.830Z,89.47
2023-01-08T21:14:26.219Z,89.72
2023-01-08T21:16:55.307Z,89.73
2023-01-08T21:19:23.970Z,89.78
2023-01-08T21:21:52.799Z,89.79
2023-01-08T21:24:21.603Z,90.45
2023-01-08T21:26:50.378Z,90.44
2023-01-08T21:29:21.081Z,90.65
2023-01-08T21:31:51.294Z,90.55
2023-01-08T21:34:21.858Z,90.58
2023-01-08T21:36:50.665Z,91.03
2023-01-08T21:39:19.372Z,91.08
2023-01-08T21:41:58.003Z,90.84
2023-01-08T21:44:37.414Z,90.85
2023-01-08T21:47:10.240Z,91.27
2023-01-08T21:49:39.373Z,91.24
2023-01-08T21:52:18.465Z,91.38
2023-01-08T21:54:48.085Z,91.52
2023-01-08T21:57:17.350Z,91.61
2023-01-08T21:59:46.405Z,91.59
2023-01-08T22:02:18.294Z,91.39
2023-01-08T22:04:47.203Z,91.66
2023-01-08T22:07:16.290Z,91.59
2023-01-08T22:09:45.401Z,91.76
2023-01-08T22:12:15.564Z,91.88
2023-01-08T22:14:44.508Z,91.79
2023-01-08T22:17:13.629Z,92.19
2023-01-08T22:19:43.906Z,92.12
2023-01-08T22:22:13.206Z,92.42
2023-01-08T22:24:42.151Z,92.61
2023-01-08T22:27:11.381Z,92.17
2023-01-08T22:29:40.137Z,92.38
2023-01-08T22:32:08.908Z,92.15
2023-01-08T22:34:37.663Z,92.37
2023-01-08T22:37:07.945Z,92.68
2023-01-08T22:39:36.752Z,92.47
2023-01-08T22:42:05.813Z,92.36
2023-01-08T22:44:34.618Z,92.67
2023-01-08T22:47:03.259Z,92.34
2023-01-08T22:49:33.905Z,92.88
2023-01-08T22:52:02.758Z,92.76
2023-01-08T22:54:32.923Z,92.46
2023-01-08T22:57:01.670Z,92.45
2023-01-08T22:59:30.406Z,92.48
2023-01-08T23:01:59.218Z,92.51
2023-01-08T23:04:28.057Z,92.62
2023-01-08T23:06:56.751Z,92.45
2023-01-08T23:09:25.893Z,92.98
2023-01-08T23:11:56.152Z,92.49
2023-01-08T23:14:25.017Z,92.53
2023-01-08T23:16:53.798Z,92.50
2023-01-08T23:19:22.723Z,93.00
2023-01-08T23:21:51.512Z,92.58
2023-01-08T23:24:20.285Z,92.66
2023-01-08T23:26:49.050Z,92.56
2023-01-08T23:29:19.199Z,92.80
2023-01-08T23:31:48.125Z,92.67
2023-01-08T23:34:18.168Z,92.53
2023-01-08T23:36:46.948Z,92.40
2023-01-08T23:39:15.588Z,92.41
2023-01-08T23:41:44.360Z,92.11
2023-01-08T23:44:15.758Z,92.25
2023-01-08T23:46:45.984Z,92.71
2023-01-08T23:49:14.975Z,92.58
2023-01-08T23:51:43.653Z,92.29
2023-01-08T23:54:13.252Z,92.63
2023-01-08T23:56:42.177Z,92.85
2023-01-08T23:59:11.000Z,93.13
